createdAt,value
2023-11-15T00:01:13.974Z,99338.16
2023-11-15T00:03:41.065Z,99350.88
2023-11-15T00:06:08.365Z,99348.09
2023-11-15T00:08:35.463Z,99353.16
2023-11-15T00:11:02.529Z,99359.03
2023-11-15T00:13:29.715Z,99357.38
2023-11-15T00:15:57.296Z,99366.88
2023-11-15T00:18:24.336Z,99364.25
2023-11-15T00:20:52.818Z,99380.22
2023-11-15T00:23:20.007Z,99381.22
2023-11-15T00:25:47.093Z,99385.47
2023-11-15T00:28:14.500Z,99377.63
2023-11-15T00:30:41.548Z,99380.56
2023-11-15T00:33:08.970Z,99386.13
2023-11-15T00:35:36.530Z,99385.63
2023-11-15T00:38:05.033Z,99383.34
2023-11-15T00:40:32.085Z,99388.25
2023-11-15T00:42:58.950Z,99402.78
2023-11-15T00:45:25.987Z,99392.34
2023-11-15T00:47:53.150Z,99400.50
2023-11-15T00:50:20.263Z,99404.25
2023-11-15T00:52:47.266Z,99413.88
2023-11-15T00:55:14.295Z,99405.72
2023-11-15T00:57:41.357Z,99424.00
2023-11-15T01:00:25.290Z,99425.16
2023-11-15T01:02:53.019Z,99437.22
2023-11-15T01:05:20.106Z,99445.22
2023-11-15T01:07:47.034Z,99433.00
2023-11-15T01:10:14.087Z,99445.88
2023-11-15T01:12:43.883Z,99447.66
2023-11-15T01:15:11.746Z,99449.47
2023-11-15T01:17:39.478Z,99447.19
2023-11-15T01:20:07.078Z,99449.78
2023-11-15T01:22:34.022Z,99441.59
2023-11-15T01:25:00.962Z,99436.75
2023-11-15T01:27:27.880Z,99446.50
2023-11-15T01:29:54.997Z,99462.84
2023-11-15T01:32:21.999Z,99471.97
2023-11-15T01:34:48.928Z,99474.59
2023-11-15T01:37:15.833Z,99467.56
2023-11-15T01:39:43.450Z,99483.38
2023-11-15T01:42:11.314Z,99488.75
2023-11-15T01:44:38.671Z,99489.91
2023-11-15T01:47:08.483Z,99499.22
2023-11-15T01:49:35.457Z,99502.78
2023-11-15T01:52:02.433Z,99515.81
2023-11-15T01:54:29.314Z,99507.84
2023-11-15T01:56:56.283Z,99513.19
2023-11-15T01:59:23.215Z,99510.28
2023-11-15T02:01:52.183Z,99514.00
2023-11-15T02:04:20.598Z,99522.34
2023-11-15T02:06:47.559Z,99531.78
2023-11-15T02:09:15.174Z,99538.00
2023-11-15T02:11:42.255Z,99537.63
2023-11-15T02:14:09.568Z,99547.44
2023-11-15T02:16:36.637Z,99558.84
2023-11-15T02:19:03.701Z,99547.56
2023-11-15T02:21:31.364Z,99553.56
2023-11-15T02:23:58.245Z,99559.78
2023-11-15T02:26:25.412Z,99556.66
2023-11-15T02:28:52.327Z,99570.22
2023-11-15T02:31:19.352Z,99571.34
2023-11-15T02:33:46.377Z,99575.25
2023-11-15T02:36:13.824Z,99584.53
2023-11-15T02:38:41.471Z,99584.34
2023-11-15T02:41:09.063Z,99592.19
2023-11-15T02:43:36.284Z,99597.09
2023-11-15T02:46:03.312Z,99590.84
2023-11-15T02:48:30.409Z,99608.81
2023-11-15T02:50:57.431Z,99613.34
2023-11-15T02:53:24.350Z,99620.88
2023-11-15T02:55:51.338Z,99605.19
2023-11-15T02:58:19.385Z,99618.56
2023-11-15T03:00:46.310Z,99617.75
2023-11-15T03:03:16.222Z,99607.44
2023-11-15T03:05:43.448Z,99620.88
2023-11-15T03:08:10.641Z,99625.56
2023-11-15T03:10:38.819Z,99628.31
2023-11-15T03:13:05.841Z,99634.38
2023-11-15T03:15:32.754Z,99626.97
2023-11-15T03:18:00.494Z,99645.56
2023-11-15T03:20:27.721Z,99642.31
2023-11-15T03:22:55.133Z,99657.78
2023-11-15T03:25:22.950Z,99644.53
2023-11-15T03:27:50.031Z,99655.47
2023-11-15T03:30:17.408Z,99655.63
2023-11-15T03:32:45.214Z,99662.47
2023-11-15T03:35:12.596Z,99662.66
2023-11-15T03:37:39.555Z,99676.50
2023-11-15T03:40:10.097Z,99678.94
2023-11-15T03:42:37.833Z,99680.22
2023-11-15T03:45:05.861Z,99689.03
2023-11-15T03:47:33.680Z,99686.59
2023-11-15T03:50:01.294Z,99680.53
2023-11-15T03:52:28.207Z,99684.78
2023-11-15T03:54:55.158Z,99695.88
2023-11-15T03:57:22.056Z,99694.41
2023-11-15T03:59:49.041Z,99702.53
2023-11-15T04:02:16.433Z,99703.84
2023-11-15T04:04:43.451Z,99701.53
2023-11-15T04:07:10.502Z,99698.56
2023-11-15T04:09:37.587Z,99714.59
2023-11-15T04:12:04.864Z,99714.06
2023-11-15T04:14:31.861Z,99713.56
2023-11-15T04:16:58.825Z,99724.28
2023-11-15T04:19:25.923Z,99726.06
2023-11-15T04:22:08.154Z,99735.00
2023-11-15T04:24:40.313Z,99729.56
2023-11-15T04:27:08.042Z,99728.63
2023-11-15T04:29:35.335Z,99745.06
2023-11-15T04:32:02.393Z,99739.84
2023-11-15T04:34:29.282Z,99743.41
2023-11-15T04:36:56.214Z,99742.75
2023-11-15T04:39:25.816Z,99748.94
2023-11-15T04:41:53.054Z,99754.69
2023-11-15T04:44:21.354Z,99752.94
2023-11-15T04:46:48.788Z,99757.34
2023-11-15T04:49:15.747Z,99759.66
2023-11-15T04:51:42.764Z,99761.75
2023-11-15T04:54:11.682Z,99775.59
2023-11-15T04:56:38.783Z,99775.06
2023-11-15T04:59:05.826Z,99778.31
2023-11-15T05:01:32.759Z,99784.22
2023-11-15T05:03:59.969Z,99781.44
2023-11-15T05:06:27.041Z,99792.72
2023-11-15T05:08:54.149Z,99801.50
2023-11-15T05:11:21.030Z,99809.31
2023-11-15T05:13:48.017Z,99816.31
2023-11-15T05:16:14.955Z,99823.16
2023-11-15T05:18:41.943Z,99820.88
2023-11-15T05:21:08.853Z,99821.81
2023-11-15T05:23:35.848Z,99835.81
2023-11-15T05:26:03.051Z,99845.41
2023-11-15T05:28:29.976Z,99841.47
2023-11-15T05:30:56.877Z,99845.72
2023-11-15T05:33:23.924Z,99849.56
2023-11-15T05:35:50.864Z,99847.78
2023-11-15T05:38:17.798Z,99854.63
2023-11-15T05:40:44.989Z,99856.25
2023-11-15T05:43:14.114Z,99855.44
2023-11-15T05:45:41.050Z,99846.44
2023-11-15T05:48:08.207Z,99872.75
2023-11-15T05:50:35.300Z,99881.09
2023-11-15T05:53:02.249Z,99883.16
2023-11-15T05:55:31.841Z,99887.94
2023-11-15T05:57:58.794Z,99895.06
2023-11-15T06:00:25.683Z,99887.25
2023-11-15T06:02:52.794Z,99898.34
2023-11-15T06:05:20.273Z,99904.13
2023-11-15T06:07:47.218Z,99905.69
2023-11-15T06:10:14.391Z,99905.97
2023-11-15T06:12:41.749Z,99915.97
2023-11-15T06:15:12.749Z,99914.47
2023-11-15T06:17:40.801Z,99928.84
2023-11-15T06:20:11.589Z,99918.97
2023-11-15T06:22:41.743Z,99934.34
2023-11-15T06:25:09.158Z,99936.81
2023-11-15T06:27:36.824Z,99935.97
2023-11-15T06:30:04.775Z,99942.56
2023-11-15T06:32:32.041Z,99948.06
2023-11-15T06:34:59.099Z,99958.84
2023-11-15T06:37:25.997Z,99949.00
2023-11-15T06:39:53.922Z,99969.56
2023-11-15T06:42:22.553Z,99971.63
2023-11-15T06:44:49.587Z,99971.50
2023-11-15T06:47:16.554Z,99973.41
2023-11-15T06:49:43.954Z,99983.03
2023-11-15T06:52:10.942Z,99975.91
2023-11-15T06:54:38.280Z,99982.03
2023-11-15T06:57:07.683Z,99988.78
2023-11-15T06:59:34.908Z,99995.34
2023-11-15T07:02:01.979Z,99999.03
2023-11-15T07:04:29.641Z,100004.50
2023-11-15T07:06:57.045Z,100009.19
2023-11-15T07:09:24.042Z,100012.19
2023-11-15T07:11:53.154Z,100018.50
2023-11-15T07:14:21.495Z,100023.56
2023-11-15T07:16:59.486Z,100032.22
2023-11-15T07:19:26.668Z,100035.78
2023-11-15T07:21:56.772Z,100041.69
2023-11-15T07:24:24.452Z,100050.31
2023-11-15T07:26:51.439Z,100054.97
2023-11-15T07:29:21.809Z,100067.59
2023-11-15T07:31:54.550Z,100066.50
2023-11-15T07:34:25.057Z,100072.41
2023-11-15T07:36:54.831Z,100069.91
2023-11-15T07:39:21.916Z,100079.78
2023-11-15T07:41:49.004Z,100075.66
2023-11-15T07:44:18.575Z,100087.44
2023-11-15T07:46:47.904Z,100088.97
2023-11-15T07:49:19.823Z,100104.16
2023-11-15T07:51:47.031Z,100100.34
2023-11-15T07:54:15.315Z,100098.94
2023-11-15T07:56:43.140Z,100115.53
2023-11-15T07:59:12.440Z,100106.63
2023-11-15T08:01:45.776Z,100103.06
2023-11-15T08:04:15.466Z,100102.78
2023-11-15T08:06:43.930Z,100111.41
2023-11-15T08:09:26.022Z,100120.22
2023-11-15T08:11:54.550Z,100134.16
2023-11-15T08:14:22.758Z,100137.47
2023-11-15T08:16:52.954Z,100137.59
2023-11-15T08:19:19.992Z,100145.13
2023-11-15T08:21:48.566Z,100145.94
2023-11-15T08:24:22.781Z,100149.78
2023-11-15T08:26:56.439Z,100162.13
2023-11-15T08:29:23.525Z,100167.88
2023-11-15T08:31:51.020Z,100176.97
2023-11-15T08:34:21.077Z,100166.41
2023-11-15T08:36:50.501Z,100193.03
2023-11-15T08:39:18.350Z,100194.44
2023-11-15T08:41:48.216Z,100202.50
2023-11-15T08:44:16.753Z,100207.75
2023-11-15T08:46:44.173Z,100199.97
2023-11-15T08:49:14.136Z,100214.19
2023-11-15T08:51:42.465Z,100216.53
2023-11-15T08:54:11.527Z,100208.31
2023-11-15T08:56:42.355Z,100225.19
2023-11-15T08:59:15.353Z,100232.19
2023-11-15T09:01:43.277Z,100232.59
2023-11-15T09:04:13.809Z,100242.59
2023-11-15T09:06:43.152Z,100247.56
2023-11-15T09:09:10.147Z,100263.75
2023-11-15T09:11:37.173Z,100260.59
2023-11-15T09:14:09.169Z,100274.16
2023-11-15T09:16:38.085Z,100276.38
2023-11-15T09:19:05.978Z,100266.06
2023-11-15T09:21:34.833Z,100276.63
2023-11-15T09:24:02.511Z,100286.53
2023-11-15T09:26:29.657Z,100284.88
2023-11-15T09:28:56.806Z,100292.00
2023-11-15T09:31:24.702Z,100285.56
2023-11-15T09:33:53.615Z,100296.38
2023-11-15T09:36:20.905Z,100300.78
2023-11-15T09:38:48.394Z,100306.94
2023-11-15T09:41:18.718Z,100306.13
2023-11-15T09:43:52.654Z,100299.25
2023-11-15T09:46:19.646Z,100307.88
2023-11-15T09:48:53.521Z,100316.94
2023-11-15T09:51:27.364Z,100317.06
2023-11-15T09:53:57.797Z,100320.81
2023-11-15T09:56:29.884Z,100327.69
2023-11-15T09:58:58.857Z,100327.69
2023-11-15T10:01:27.836Z,100345.94
2023-11-15T10:03:54.924Z,100342.94
2023-11-15T10:06:21.940Z,100347.63
2023-11-15T10:08:56.275Z,100352.25
2023-11-15T10:11:25.720Z,100351.69
2023-11-15T10:14:10.171Z,100356.13
2023-11-15T10:16:37.651Z,100357.16
2023-11-15T10:19:27.938Z,100361.66
2023-11-15T10:22:04.370Z,100353.00
2023-11-15T10:24:36.063Z,100368.63
2023-11-15T10:27:07.768Z,100370.19
2023-11-15T10:29:38.880Z,100371.78
2023-11-15T10:32:06.437Z,100364.94
2023-11-15T10:34:34.714Z,100377.59
2023-11-15T10:37:12.017Z,100376.50
2023-11-15T10:39:45.568Z,100382.41
2023-11-15T10:42:15.640Z,100388.28
2023-11-15T10:44:46.372Z,100383.94
2023-11-15T10:47:14.010Z,100402.22
2023-11-15T10:49:44.886Z,100393.47
2023-11-15T10:52:12.719Z,100402.13
2023-11-15T10:54:40.170Z,100401.31
2023-11-15T10:57:11.143Z,100410.06
2023-11-15T10:59:40.162Z,100416.56
2023-11-15T11:02:07.512Z,100415.59
2023-11-15T11:04:35.024Z,100429.72
2023-11-15T11:07:15.467Z,100419.56
2023-11-15T11:09:54.234Z,100426.44
2023-11-15T11:12:23.993Z,100434.28
2023-11-15T11:15:18.795Z,100433.03
2023-11-15T11:17:49.713Z,100441.41
2023-11-15T11:20:27.398Z,100453.78
2023-11-15T11:23:09.090Z,100452.69
2023-11-15T11:25:36.991Z,100462.72
2023-11-15T11:28:04.056Z,100463.25
2023-11-15T11:30:33.619Z,100457.34
2023-11-15T11:33:11.423Z,100478.19
2023-11-15T11:35:42.076Z,100474.75
2023-11-15T11:38:13.557Z,100476.25
2023-11-15T11:40:40.955Z,100472.63
2023-11-15T11:43:17.786Z,100480.56
2023-11-15T11:45:45.725Z,100477.78
2023-11-15T11:48:20.072Z,100486.53
2023-11-15T11:50:56.864Z,100482.63
2023-11-15T11:53:24.063Z,100481.72
2023-11-15T11:55:54.967Z,100485.72
2023-11-15T11:58:27.256Z,100490.13
2023-11-15T12:01:05.285Z,100489.03
2023-11-15T12:03:34.084Z,100500.56
2023-11-15T12:06:08.971Z,100505.84
2023-11-15T12:08:49.278Z,100499.91
2023-11-15T12:11:18.749Z,100503.97
2023-11-15T12:13:50.337Z,100508.53
2023-11-15T12:16:18.418Z,100521.19
2023-11-15T12:19:03.740Z,100534.38
2023-11-15T12:21:32.316Z,100538.00
2023-11-15T12:24:00.205Z,100537.56
2023-11-15T12:26:28.377Z,100538.44
2023-11-15T12:28:55.522Z,100536.63
2023-11-15T12:31:22.543Z,100538.44
2023-11-15T12:33:50.828Z,100550.38
2023-11-15T12:36:17.916Z,100549.16
2023-11-15T12:38:56.100Z,100559.47
2023-11-15T12:41:23.908Z,100558.38
2023-11-15T12:44:03.622Z,100559.72
2023-11-15T12:46:30.645Z,100559.88
2023-11-15T12:48:57.731Z,100579.53
2023-11-15T12:51:24.965Z,100583.00
2023-11-15T12:53:53.680Z,100587.13
2023-11-15T12:56:21.050Z,100593.44
2023-11-15T12:58:49.006Z,100593.56
2023-11-15T13:01:18.564Z,100603.88
2023-11-15T13:03:46.371Z,100608.28
2023-11-15T13:06:20.427Z,100612.13
2023-11-15T13:08:51.776Z,100605.94
2023-11-15T13:11:23.334Z,100610.19
2023-11-15T13:13:50.949Z,100615.03
2023-11-15T13:16:18.707Z,100620.38
2023-11-15T13:18:46.382Z,100626.13
2023-11-15T13:21:14.562Z,100632.47
2023-11-15T13:23:48.171Z,100631.09
2023-11-15T13:26:16.124Z,100634.50
2023-11-15T13:28:45.876Z,100631.84
2023-11-15T13:31:16.109Z,100647.19
2023-11-15T13:33:48.820Z,100647.44
2023-11-15T13:36:18.249Z,100659.38
2023-11-15T13:38:45.608Z,100668.38
2023-11-15T13:41:13.515Z,100670.75
2023-11-15T13:43:43.462Z,100676.75
2023-11-15T13:46:10.448Z,100681.66
2023-11-15T13:48:37.695Z,100683.69
2023-11-15T13:51:08.322Z,100681.84
2023-11-15T13:53:40.425Z,100699.44
2023-11-15T13:56:08.780Z,100701.19
2023-11-15T13:58:37.650Z,100699.03
2023-11-15T14:01:06.256Z,100710.66
2023-11-15T14:03:34.170Z,100717.97
2023-11-15T14:06:05.409Z,100723.44
2023-11-15T14:08:47.500Z,100725.56
2023-11-15T14:11:23.783Z,100725.78
2023-11-15T14:13:50.838Z,100737.81
2023-11-15T14:16:17.926Z,100744.44
2023-11-15T14:18:49.012Z,100748.25
2023-11-15T14:21:16.498Z,100761.66
2023-11-15T14:23:43.768Z,100767.03
2023-11-15T14:26:11.555Z,100774.25
2023-11-15T14:28:38.525Z,100776.41
2023-11-15T14:31:06.267Z,100770.28
2023-11-15T14:33:33.997Z,100773.94
2023-11-15T14:36:01.081Z,100777.66
2023-11-15T14:38:28.091Z,100779.88
2023-11-15T14:40:56.868Z,100782.00
2023-11-15T14:43:24.087Z,100798.00
2023-11-15T14:45:51.599Z,100803.84
2023-11-15T14:48:18.797Z,100801.34
2023-11-15T14:50:46.131Z,100808.31
2023-11-15T14:53:27.125Z,100809.13
2023-11-15T14:55:54.304Z,100814.84
2023-11-15T14:58:23.771Z,100820.97
2023-11-15T15:00:50.718Z,100827.97
2023-11-15T15:03:20.845Z,100831.31
2023-11-15T15:05:51.538Z,100843.13
2023-11-15T15:08:19.171Z,100846.47
2023-11-15T15:10:46.121Z,100855.69
2023-11-15T15:13:13.554Z,100845.28
2023-11-15T15:15:40.680Z,100848.47
2023-11-15T15:18:13.941Z,100857.00
2023-11-15T15:20:46.222Z,100855.25
2023-11-15T15:23:14.319Z,100838.66
2023-11-15T15:25:43.061Z,100860.78
2023-11-15T15:28:12.543Z,100838.13
2023-11-15T15:30:40.381Z,100865.47
2023-11-15T15:33:08.848Z,100879.03
2023-11-15T15:35:36.314Z,100875.94
2023-11-15T15:38:03.850Z,100890.72
2023-11-15T15:40:36.535Z,100900.56
2023-11-15T15:43:03.731Z,100887.44
2023-11-15T15:45:30.669Z,100895.47
2023-11-15T15:47:58.739Z,100907.63
2023-11-15T15:50:25.901Z,100916.50
2023-11-15T15:52:52.839Z,100909.75
2023-11-15T15:55:19.869Z,100912.34
2023-11-15T15:57:46.862Z,100911.19
2023-11-15T16:00:17.841Z,100918.50
2023-11-15T16:02:47.809Z,100918.28
2023-11-15T16:05:15.392Z,100922.28
2023-11-15T16:07:42.872Z,100914.00
2023-11-15T16:10:09.957Z,100923.47
2023-11-15T16:12:37.781Z,100934.28
2023-11-15T16:15:08.157Z,100933.53
2023-11-15T16:17:37.757Z,100940.78
2023-11-15T16:20:06.262Z,100950.91
2023-11-15T16:22:33.260Z,100949.78
2023-11-15T16:25:00.225Z,100953.25
2023-11-15T16:27:31.907Z,100953.25
2023-11-15T16:30:06.956Z,100965.16
2023-11-15T16:32:36.603Z,100967.47
2023-11-15T16:35:05.578Z,100965.91
2023-11-15T16:37:36.169Z,100968.44
2023-11-15T16:40:06.740Z,100973.66
2023-11-15T16:42:34.013Z,100986.06
2023-11-15T16:45:02.606Z,100988.97
2023-11-15T16:47:30.124Z,100988.66
2023-11-15T16:49:59.117Z,101002.75
2023-11-15T16:52:26.278Z,101011.13
2023-11-15T16:54:53.452Z,101004.03
2023-11-15T16:57:20.628Z,101016.53
2023-11-15T16:59:50.360Z,101013.00
2023-11-15T17:02:17.745Z,101019.50
2023-11-15T17:04:44.703Z,101019.41
2023-11-15T17:07:12.057Z,101032.84
2023-11-15T17:09:38.937Z,101029.72
2023-11-15T17:12:06.465Z,101019.13
2023-11-15T17:14:34.487Z,101025.34
2023-11-15T17:17:01.806Z,101043.41
2023-11-15T17:19:28.767Z,101032.72
2023-11-15T17:21:58.769Z,101045.28
2023-11-15T17:24:26.691Z,101045.91
2023-11-15T17:26:54.101Z,101053.72
2023-11-15T17:29:21.592Z,101055.66
2023-11-15T17:31:48.681Z,101056.09
2023-11-15T17:34:15.788Z,101062.63
2023-11-15T17:36:42.885Z,101064.81
2023-11-15T17:39:13.278Z,101077.38
2023-11-15T17:41:41.425Z,101082.72
2023-11-15T17:44:13.587Z,101075.22
2023-11-15T17:46:43.258Z,101075.03
2023-11-15T17:49:12.184Z,101072.00
2023-11-15T17:51:39.387Z,101071.06
2023-11-15T17:54:08.407Z,101065.34
2023-11-15T17:56:35.629Z,101076.97
2023-11-15T17:59:04.040Z,101080.59
2023-11-15T18:01:34.807Z,101078.50
2023-11-15T18:04:10.820Z,101083.38
2023-11-15T18:06:38.956Z,101076.56
2023-11-15T18:09:08.555Z,101081.34
2023-11-15T18:11:36.145Z,101081.59
2023-11-15T18:14:03.107Z,101091.63
2023-11-15T18:16:31.754Z,101081.78
2023-11-15T18:19:06.197Z,101092.75
2023-11-15T18:21:34.056Z,101098.00
2023-11-15T18:24:01.802Z,101086.69
2023-11-15T18:26:29.117Z,101087.31
2023-11-15T18:28:57.802Z,101086.34
2023-11-15T18:31:27.081Z,101083.00
2023-11-15T18:33:57.887Z,101099.34
2023-11-15T18:36:25.989Z,101102.84
2023-11-15T18:38:53.245Z,101107.59
2023-11-15T18:41:20.322Z,101106.94
2023-11-15T18:43:47.333Z,101098.63
2023-11-15T18:46:14.584Z,101123.47
2023-11-15T18:48:41.739Z,101117.53
2023-11-15T18:51:08.996Z,101120.13
2023-11-15T18:53:36.020Z,101130.59
2023-11-15T18:56:02.971Z,101132.25
2023-11-15T18:58:29.891Z,101127.63
2023-11-15T19:00:56.908Z,101138.06
2023-11-15T19:03:26.088Z,101131.41
2023-11-15T19:05:55.060Z,101134.16
2023-11-15T19:08:24.212Z,101134.09
2023-11-15T19:10:55.686Z,101141.16
2023-11-15T19:13:23.082Z,101137.25
2023-11-15T19:15:51.805Z,101129.66
2023-11-15T19:18:20.595Z,101149.28
2023-11-15T19:20:47.604Z,101145.66
2023-11-15T19:23:17.857Z,101153.59
2023-11-15T19:25:45.171Z,101145.19
2023-11-15T19:28:16.029Z,101143.22
2023-11-15T19:30:44.816Z,101145.16
2023-11-15T19:33:13.888Z,101147.75
2023-11-15T19:35:41.641Z,101152.00
2023-11-15T19:38:09.477Z,101162.28
2023-11-15T19:40:36.558Z,101168.19
2023-11-15T19:43:03.680Z,101169.22
2023-11-15T19:45:32.549Z,101166.44
2023-11-15T19:48:00.169Z,101166.91
2023-11-15T19:50:27.341Z,101176.41
2023-11-15T19:52:54.369Z,101176.22
2023-11-15T19:55:21.332Z,101178.06
2023-11-15T19:57:48.250Z,101171.28
2023-11-15T20:00:18.061Z,101169.50
2023-11-15T20:02:47.008Z,101174.84
2023-11-15T20:05:15.657Z,101176.00
2023-11-15T20:07:43.268Z,101182.38
2023-11-15T20:10:10.661Z,101184.56
2023-11-15T20:12:40.968Z,101168.78
2023-11-15T20:15:08.749Z,101181.06
2023-11-15T20:17:35.853Z,101172.97
2023-11-15T20:20:04.959Z,101185.00
2023-11-15T20:22:42.002Z,101182.56
2023-11-15T20:25:15.679Z,101186.19
2023-11-15T20:27:43.119Z,101194.84
2023-11-15T20:30:10.559Z,101195.09
2023-11-15T20:32:37.543Z,101198.28
2023-11-15T20:35:04.914Z,101210.22
2023-11-15T20:37:32.201Z,101202.94
2023-11-15T20:39:59.222Z,101192.25
2023-11-15T20:42:27.125Z,101194.59
2023-11-15T20:44:55.786Z,101211.38
2023-11-15T20:47:23.587Z,101211.72
2023-11-15T20:49:53.700Z,101222.88
2023-11-15T20:52:20.857Z,101220.31
2023-11-15T20:54:47.807Z,101220.88
2023-11-15T20:57:14.960Z,101221.03
2023-11-15T20:59:42.040Z,101203.88
2023-11-15T21:02:09.014Z,101221.59
2023-11-15T21:04:37.092Z,101211.38
2023-11-15T21:07:04.102Z,101211.84
2023-11-15T21:09:31.021Z,101218.09
2023-11-15T21:11:58.029Z,101220.47
2023-11-15T21:14:26.558Z,101213.31
2023-11-15T21:16:53.683Z,101222.97
2023-11-15T21:19:20.832Z,101222.56
2023-11-15T21:21:47.798Z,101232.72
2023-11-15T21:24:14.832Z,101238.38
2023-11-15T21:26:41.991Z,101237.03
2023-11-15T21:29:12.377Z,101238.47
2023-11-15T21:31:41.336Z,101241.53
2023-11-15T21:34:09.299Z,101235.06
2023-11-15T21:36:39.477Z,101231.06
2023-11-15T21:39:10.542Z,101241.56
2023-11-15T21:41:37.591Z,101243.38
2023-11-15T21:44:05.562Z,101247.13
2023-11-15T21:46:32.615Z,101244.94
2023-11-15T21:49:01.706Z,101253.56
2023-11-15T21:51:29.041Z,101250.16
2023-11-15T21:53:56.173Z,101254.72
2023-11-15T21:56:23.135Z,101264.16
2023-11-15T21:58:50.553Z,101265.13
2023-11-15T22:01:17.553Z,101266.03
2023-11-15T22:03:44.587Z,101270.38
2023-11-15T22:06:12.243Z,101276.00
2023-11-15T22:08:40.351Z,101278.03
2023-11-15T22:11:07.588Z,101272.31
2023-11-15T22:13:34.781Z,101268.44
2023-11-15T22:16:01.953Z,101273.38
2023-11-15T22:18:29.956Z,101271.91
2023-11-15T22:20:57.439Z,101268.06
2023-11-15T22:23:25.739Z,101264.03
2023-11-15T22:25:52.752Z,101261.34
2023-11-15T22:28:19.678Z,101254.50
2023-11-15T22:30:47.858Z,101262.94
2023-11-15T22:33:15.030Z,101262.53
2023-11-15T22:35:49.170Z,101265.19
2023-11-15T22:38:16.500Z,101265.59
2023-11-15T22:40:43.507Z,101283.16
2023-11-15T22:43:10.500Z,101269.97
2023-11-15T22:45:38.222Z,101283.19
2023-11-15T22:48:05.760Z,101279.88
2023-11-15T22:50:32.751Z,101285.41
2023-11-15T22:52:59.664Z,101284.88
2023-11-15T22:55:26.664Z,101283.88
2023-11-15T22:57:53.618Z,101281.69
2023-11-15T23:00:27.528Z,101279.09
2023-11-15T23:02:54.866Z,101288.84
2023-11-15T23:05:22.034Z,101285.41
2023-11-15T23:07:49.574Z,101297.44
2023-11-15T23:10:16.992Z,101303.59
2023-11-15T23:12:43.989Z,101299.78
2023-11-15T23:15:12.512Z,101299.88
2023-11-15T23:17:39.525Z,101307.44
2023-11-15T23:20:06.925Z,101298.81
2023-11-15T23:22:34.114Z,101307.44
2023-11-15T23:25:01.020Z,101305.53
2023-11-15T23:27:27.891Z,101288.84
2023-11-15T23:29:54.852Z,101299.88
2023-11-15T23:32:21.705Z,101300.63
2023-11-15T23:34:48.584Z,101297.34
2023-11-15T23:37:16.722Z,101299.88
2023-11-15T23:39:43.688Z,101298.50
2023-11-15T23:42:10.994Z,101294.22
2023-11-15T23:44:40.092Z,101297.88
2023-11-15T23:47:07.509Z,101303.19
2023-11-15T23:49:34.657Z,101304.81
2023-11-15T23:52:01.496Z,101310.19
2023-11-15T23:54:29.766Z,101307.81
2023-11-15T23:56:59.038Z,101313.38
2023-11-15T23:59:26.788Z,101299.44
